createdAt,value
2019-01-08T00:00:36.330Z,100709.61
2019-01-08T00:03:04.810Z,100723.50
2019-01-08T00:05:33.248Z,100715.03
2019-01-08T00:08:01.663Z,100703.18
2019-01-08T00:10:30.106Z,100705.97
2019-01-08T00:12:58.525Z,100702.06
2019-01-08T00:15:26.963Z,100695.45
2019-01-08T00:17:55.388Z,100692.94
2019-01-08T00:20:23.884Z,100682.12
2019-01-08T00:22:52.326Z,100676.18
2019-01-08T00:25:20.738Z,100666.20
2019-01-08T00:27:49.179Z,100665.36
2019-01-08T00:30:17.600Z,100657.27
2019-01-08T00:32:46.046Z,100641.38
2019-01-08T00:35:14.456Z,100647.42
2019-01-08T00:37:42.895Z,100645.33
2019-01-08T00:40:11.305Z,100640.75
2019-01-08T00:42:39.763Z,100631.75
2019-01-08T00:45:08.178Z,100631.75
2019-01-08T00:47:36.622Z,100628.39
2019-01-08T00:50:06.214Z,100624.33
2019-01-08T00:52:34.656Z,100615.84
2019-01-08T00:55:03.149Z,100599.73
2019-01-08T00:57:31.598Z,100598.70
2019-01-08T01:00:00.012Z,100593.28
2019-01-08T01:02:28.453Z,100593.28
2019-01-08T01:04:56.873Z,100589.31
2019-01-08T01:07:25.318Z,100582.52
2019-01-08T01:09:53.733Z,100575.27
2019-01-08T01:12:22.190Z,100575.87
2019-01-08T01:14:50.606Z,100575.87
2019-01-08T01:17:19.058Z,100574.99
2019-01-08T01:19:47.464Z,100568.25
2019-01-08T01:22:15.912Z,100568.97
2019-01-08T01:24:44.328Z,100559.84
2019-01-08T01:27:12.776Z,100558.61
2019-01-08T01:29:41.260Z,100548.55
2019-01-08T01:32:09.705Z,100548.55
2019-01-08T01:34:38.128Z,100539.06
2019-01-08T01:37:06.583Z,100536.67
2019-01-08T01:39:35.004Z,100537.03
2019-01-08T01:42:03.444Z,100518.87
2019-01-08T01:44:31.868Z,100500.37
2019-01-08T01:47:00.321Z,100515.52
2019-01-08T01:49:28.807Z,100492.19
2019-01-08T01:51:57.328Z,100490.36
2019-01-08T01:54:25.752Z,100490.36
2019-01-08T01:56:54.193Z,100482.64
2019-01-08T01:59:22.620Z,100491.15
2019-01-08T02:01:51.065Z,100487.59
2019-01-08T02:04:19.489Z,100477.86
2019-01-08T02:06:47.927Z,100474.63
2019-01-08T02:09:16.344Z,100445.46
2019-01-08T02:11:44.878Z,100443.78
2019-01-08T02:14:13.293Z,100434.34
2019-01-08T02:16:41.741Z,100433.11
2019-01-08T02:19:10.164Z,100441.59
2019-01-08T02:21:38.619Z,100430.64
2019-01-08T02:24:07.034Z,100422.36
2019-01-08T02:26:35.483Z,100415.26
2019-01-08T02:29:03.902Z,100413.43
2019-01-08T02:31:32.318Z,100414.47
2019-01-08T02:34:00.771Z,100409.06
2019-01-08T02:36:29.258Z,100409.27
2019-01-08T02:38:57.697Z,100389.68
2019-01-08T02:41:26.236Z,100388.84
2019-01-08T02:43:54.721Z,100383.10
2019-01-08T02:46:23.149Z,100348.80
2019-01-08T02:48:51.588Z,100353.66
2019-01-08T02:51:20.016Z,100356.49
2019-01-08T02:53:48.459Z,100356.49
2019-01-08T02:56:16.890Z,100345.15
2019-01-08T02:58:45.344Z,100331.59
2019-01-08T03:01:13.774Z,100321.13
2019-01-08T03:03:42.287Z,100321.13
2019-01-08T03:06:10.699Z,100314.20
2019-01-08T03:08:39.147Z,100302.20
2019-01-08T03:11:07.564Z,100278.69
2019-01-08T03:13:36.016Z,100275.41
2019-01-08T03:16:04.437Z,100275.41
2019-01-08T03:18:32.885Z,100251.02
2019-01-08T03:21:01.373Z,100256.95
2019-01-08T03:23:29.897Z,100244.29
2019-01-08T03:25:58.316Z,100244.29
2019-01-08T03:28:26.775Z,100238.18
2019-01-08T03:30:55.213Z,100219.67
2019-01-08T03:33:23.834Z,100219.67
2019-01-08T03:35:52.258Z,100214.27
2019-01-08T03:38:20.676Z,100201.50
2019-01-08T03:40:49.114Z,100185.30
2019-01-08T03:43:17.532Z,100185.30
2019-01-08T03:45:45.972Z,100191.41
2019-01-08T03:48:14.397Z,100186.16
2019-01-08T03:50:42.853Z,100178.52
2019-01-08T03:53:11.345Z,100164.94
2019-01-08T03:55:39.792Z,100164.94
2019-01-08T03:58:08.210Z,100175.48
2019-01-08T04:00:36.656Z,100179.02
2019-01-08T04:03:05.067Z,100157.84
2019-01-08T04:05:33.509Z,100157.84
2019-01-08T04:08:01.930Z,100130.49
2019-01-08T04:10:30.381Z,100124.98
2019-01-08T04:12:58.800Z,100124.98
2019-01-08T04:15:27.320Z,100108.27
2019-01-08T04:17:55.737Z,100123.72
2019-01-08T04:20:24.184Z,100123.72
2019-01-08T04:22:52.615Z,100093.28
2019-01-08T04:25:21.057Z,100089.88
2019-01-08T04:27:49.476Z,100089.88
2019-01-08T04:30:17.923Z,100066.09
2019-01-08T04:32:46.411Z,100057.13
2019-01-08T04:35:14.858Z,100057.59
2019-01-08T04:37:43.272Z,100057.59
2019-01-08T04:40:11.717Z,100044.31
2019-01-08T04:42:40.141Z,100033.80
2019-01-08T04:45:08.550Z,100016.26
2019-01-08T04:47:36.996Z,100012.14
2019-01-08T04:50:07.052Z,100000.28
2019-01-08T04:52:35.497Z,99982.42
2019-01-08T04:55:04.060Z,99968.55
2019-01-08T04:57:32.500Z,99965.78
2019-01-08T05:00:00.919Z,99965.78
2019-01-08T05:02:29.367Z,99961.07
2019-01-08T05:04:57.781Z,99953.92
2019-01-08T05:07:26.214Z,99953.92
2019-01-08T05:09:54.707Z,99939.37
2019-01-08T05:12:23.162Z,99926.73
2019-01-08T05:14:51.579Z,99931.95
2019-01-08T05:17:20.017Z,99931.95
2019-01-08T05:19:48.430Z,99922.86
2019-01-08T05:22:16.863Z,99909.31
2019-01-08T05:24:45.273Z,99909.31
2019-01-08T05:27:13.707Z,99892.44
2019-01-08T05:29:42.119Z,99892.44
2019-01-08T05:32:10.567Z,99875.54
2019-01-08T05:34:38.982Z,99862.52
2019-01-08T05:37:07.424Z,99862.52
2019-01-08T05:39:35.831Z,99860.58
2019-01-08T05:42:04.275Z,99862.83
2019-01-08T05:44:32.694Z,99834.34
2019-01-08T05:47:01.134Z,99834.34
2019-01-08T05:49:29.545Z,99844.92
2019-01-08T05:51:58.020Z,99824.80
2019-01-08T05:54:26.426Z,99800.32
2019-01-08T05:56:54.849Z,99814.62
2019-01-08T05:59:23.292Z,99814.62
2019-01-08T06:01:51.705Z,99772.73
2019-01-08T06:04:20.142Z,99802.13
2019-01-08T06:06:48.626Z,99802.13
2019-01-08T06:09:17.056Z,99789.88
2019-01-08T06:11:45.469Z,99766.81
2019-01-08T06:14:13.912Z,99782.28
2019-01-08T06:16:42.332Z,99769.44
2019-01-08T06:19:10.772Z,99769.44
2019-01-08T06:21:39.190Z,99747.55
2019-01-08T06:24:07.624Z,99747.55
2019-01-08T06:26:36.037Z,99757.99
2019-01-08T06:29:04.475Z,99736.36
2019-01-08T06:31:32.918Z,99736.36
2019-01-08T06:34:01.411Z,99735.00
2019-01-08T06:36:29.824Z,99727.77
2019-01-08T06:38:58.261Z,99727.77
2019-01-08T06:41:26.673Z,99737.27
2019-01-08T06:43:55.115Z,99731.36
2019-01-08T06:46:23.531Z,99721.45
2019-01-08T06:48:51.965Z,99717.09
2019-01-08T06:51:20.386Z,99717.09
2019-01-08T06:53:48.831Z,99668.80
2019-01-08T06:56:17.240Z,99668.80
2019-01-08T06:58:45.675Z,99675.82
2019-01-08T07:01:14.093Z,99647.23
2019-01-08T07:03:42.535Z,99658.19
2019-01-08T07:06:10.947Z,99658.19
2019-01-08T07:08:39.391Z,99661.51
2019-01-08T07:11:07.819Z,99643.48
2019-01-08T07:13:36.236Z,99643.48
2019-01-08T07:16:04.682Z,99636.23
2019-01-08T07:18:33.097Z,99636.23
2019-01-08T07:21:01.544Z,99630.11
2019-01-08T07:23:29.958Z,99630.11
2019-01-08T07:25:58.400Z,99626.05
2019-01-08T07:28:26.819Z,99626.05
2019-01-08T07:30:55.255Z,99625.39
2019-01-08T07:33:23.676Z,99616.48
2019-01-08T07:35:52.582Z,99599.16
2019-01-08T07:38:20.993Z,99595.44
2019-01-08T07:40:49.436Z,99595.44
2019-01-08T07:43:17.860Z,99585.34
2019-01-08T07:45:46.296Z,99575.22
2019-01-08T07:48:14.786Z,99582.23
2019-01-08T07:50:43.230Z,99582.23
2019-01-08T07:53:11.645Z,99545.55
2019-01-08T07:55:40.095Z,99545.55
2019-01-08T07:58:08.510Z,99560.17
2019-01-08T08:00:36.953Z,99539.00
2019-01-08T08:03:05.435Z,99539.00
2019-01-08T08:05:33.884Z,99546.20
2019-01-08T08:08:02.302Z,99536.91
2019-01-08T08:10:30.740Z,99536.91
2019-01-08T08:12:59.155Z,99503.72
2019-01-08T08:15:27.585Z,99517.97
2019-01-08T08:17:56.011Z,99522.32
2019-01-08T08:20:24.466Z,99483.49
2019-01-08T08:22:52.864Z,99483.49
2019-01-08T08:25:21.301Z,99503.06
2019-01-08T08:27:49.721Z,99495.67
2019-01-08T08:30:18.164Z,99481.21
2019-01-08T08:32:46.575Z,99481.21
2019-01-08T08:35:15.031Z,99478.28
2019-01-08T08:37:43.423Z,99483.72
2019-01-08T08:40:11.861Z,99468.59
2019-01-08T08:42:40.276Z,99496.73
2019-01-08T08:45:08.732Z,99469.77
2019-01-08T08:47:37.136Z,99469.77
2019-01-08T08:50:06.712Z,99484.24
2019-01-08T08:52:35.152Z,99488.20
2019-01-08T08:55:03.567Z,99488.20
2019-01-08T08:57:32.011Z,99480.38
2019-01-08T09:00:00.432Z,99489.58
2019-01-08T09:02:28.873Z,99480.52
2019-01-08T09:04:57.293Z,99493.62
2019-01-08T09:07:25.731Z,99479.67
2019-01-08T09:09:54.147Z,99498.23
2019-01-08T09:12:22.589Z,99498.23
2019-01-08T09:14:50.995Z,99507.09
2019-01-08T09:17:19.434Z,99497.31
2019-01-08T09:19:47.852Z,99500.03
2019-01-08T09:22:16.299Z,99496.47
2019-01-08T09:24:44.716Z,99504.52
2019-01-08T09:27:13.153Z,99524.45
2019-01-08T09:29:41.570Z,99513.37
2019-01-08T09:32:10.079Z,99513.37
2019-01-08T09:34:38.504Z,99512.89
2019-01-08T09:37:06.943Z,99523.39
2019-01-08T09:39:35.355Z,99523.39
2019-01-08T09:42:03.799Z,99509.31
2019-01-08T09:44:32.208Z,99509.31
2019-01-08T09:47:00.666Z,99518.50
2019-01-08T09:49:29.079Z,99518.80
2019-01-08T09:51:57.521Z,99518.80
2019-01-08T09:54:25.936Z,99521.73
2019-01-08T09:56:54.389Z,99530.61
2019-01-08T09:59:22.794Z,99530.61
2019-01-08T10:01:51.235Z,99534.88
2019-01-08T10:04:19.652Z,99524.56
2019-01-08T10:06:48.089Z,99524.56
2019-01-08T10:09:16.510Z,99533.41
2019-01-08T10:11:44.954Z,99533.41
2019-01-08T10:14:13.366Z,99554.36
2019-01-08T10:16:41.806Z,99554.36
2019-01-08T10:19:10.222Z,99553.85
2019-01-08T10:21:38.670Z,99553.85
2019-01-08T10:24:07.084Z,99547.55
2019-01-08T10:26:35.512Z,99543.48
2019-01-08T10:29:03.956Z,99558.73
2019-01-08T10:31:32.875Z,99520.26
2019-01-08T10:34:01.400Z,99551.36
2019-01-08T10:36:29.800Z,99551.36
2019-01-08T10:38:58.240Z,99550.60
2019-01-08T10:41:26.655Z,99550.60
2019-01-08T10:43:55.088Z,99550.94
2019-01-08T10:46:23.510Z,99542.06
2019-01-08T10:48:51.956Z,99572.70
2019-01-08T10:51:20.382Z,99563.20
2019-01-08T10:53:48.828Z,99563.20
2019-01-08T10:56:17.239Z,99546.72
2019-01-08T10:58:45.735Z,99583.93
2019-01-08T11:01:14.120Z,99584.63
2019-01-08T11:03:42.558Z,99583.80
2019-01-08T11:06:10.972Z,99594.92
2019-01-08T11:08:39.418Z,99567.72
2019-01-08T11:11:07.830Z,99597.42
2019-01-08T11:13:36.266Z,99588.22
2019-01-08T11:16:04.679Z,99588.22
2019-01-08T11:18:33.190Z,99588.13
2019-01-08T11:21:01.606Z,99587.92
2019-01-08T11:23:30.115Z,99587.92
2019-01-08T11:25:58.514Z,99577.94
2019-01-08T11:28:26.966Z,99592.09
2019-01-08T11:30:55.377Z,99592.09
2019-01-08T11:33:23.812Z,99585.97
2019-01-08T11:35:52.289Z,99592.23
2019-01-08T11:38:20.729Z,99602.55
2019-01-08T11:40:49.150Z,99587.15
2019-01-08T11:43:17.593Z,99582.48
2019-01-08T11:45:46.002Z,99582.48
2019-01-08T11:48:14.442Z,99595.02
2019-01-08T11:50:42.853Z,99590.31
2019-01-08T11:53:11.292Z,99590.31
2019-01-08T11:55:39.709Z,99599.72
2019-01-08T11:58:08.128Z,99564.17
2019-01-08T12:00:36.567Z,99564.17
2019-01-08T12:03:04.978Z,99608.78
2019-01-08T12:05:33.415Z,99608.07
2019-01-08T12:08:01.833Z,99595.24
2019-01-08T12:10:30.277Z,99595.24
2019-01-08T12:12:58.692Z,99607.15
2019-01-08T12:15:27.124Z,99607.15
2019-01-08T12:17:55.543Z,99594.53
2019-01-08T12:20:23.979Z,99602.67
2019-01-08T12:22:52.398Z,99602.67
2019-01-08T12:25:20.850Z,99611.84
2019-01-08T12:27:49.261Z,99601.72
2019-01-08T12:30:17.711Z,99589.32
2019-01-08T12:32:46.127Z,99593.39
2019-01-08T12:35:14.561Z,99593.39
2019-01-08T12:37:42.967Z,99605.06
2019-01-08T12:40:11.412Z,99604.42
2019-01-08T12:42:39.840Z,99602.89
2019-01-08T12:45:08.344Z,99608.62
2019-01-08T12:47:36.765Z,99610.09
2019-01-08T12:50:06.738Z,99609.03
2019-01-08T12:52:35.148Z,99609.03
2019-01-08T12:55:03.591Z,99607.16
2019-01-08T12:57:32.004Z,99607.16
2019-01-08T13:00:00.439Z,99606.84
2019-01-08T13:02:28.856Z,99613.52
2019-01-08T13:04:57.288Z,99623.23
2019-01-08T13:07:25.696Z,99593.91
2019-01-08T13:09:54.139Z,99626.36
2019-01-08T13:12:22.558Z,99619.69
2019-01-08T13:14:50.994Z,99615.81
2019-01-08T13:17:19.407Z,99615.81
2019-01-08T13:19:47.846Z,99618.83
2019-01-08T13:22:16.261Z,99637.73
2019-01-08T13:24:44.707Z,99624.05
2019-01-08T13:27:13.119Z,99624.05
2019-01-08T13:29:41.558Z,99606.13
2019-01-08T13:32:09.980Z,99606.13
2019-01-08T13:34:38.423Z,99605.05
2019-01-08T13:37:07.350Z,99612.89
2019-01-08T13:39:35.787Z,99612.89
2019-01-08T13:42:04.273Z,99632.06
2019-01-08T13:44:32.709Z,99636.77
2019-01-08T13:47:01.137Z,99620.20
2019-01-08T13:49:29.563Z,99650.11
2019-01-08T13:51:57.977Z,99636.88
2019-01-08T13:54:26.426Z,99638.11
2019-01-08T13:56:54.836Z,99638.11
2019-01-08T13:59:23.249Z,99646.67
2019-01-08T14:01:51.690Z,99655.72
2019-01-08T14:04:20.109Z,99658.11
2019-01-08T14:06:48.545Z,99658.11
2019-01-08T14:09:16.962Z,99660.94
2019-01-08T14:11:46.264Z,99655.20
2019-01-08T14:14:14.666Z,99655.20
2019-01-08T14:16:43.110Z,99641.41
2019-01-08T14:19:11.527Z,99669.27
2019-01-08T14:21:39.962Z,99669.27
2019-01-08T14:24:08.382Z,99661.81
2019-01-08T14:26:36.825Z,99661.81
2019-01-08T14:29:05.313Z,99650.44
2019-01-08T14:31:33.743Z,99669.09
2019-01-08T14:34:02.149Z,99658.44
2019-01-08T14:36:31.932Z,99658.44
2019-01-08T14:39:00.592Z,99675.84
2019-01-08T14:41:29.028Z,99678.79
2019-01-08T14:43:57.442Z,99702.43
2019-01-08T14:46:25.887Z,99701.04
2019-01-08T14:48:54.305Z,99701.04
2019-01-08T14:51:22.750Z,99689.67
2019-01-08T14:53:51.165Z,99703.61
2019-01-08T14:56:19.603Z,99734.02
2019-01-08T14:58:48.019Z,99722.00
2019-01-08T15:01:16.465Z,99722.00
2019-01-08T15:03:44.869Z,99749.37
2019-01-08T15:06:13.313Z,99769.41
2019-01-08T15:08:41.729Z,99769.41
2019-01-08T15:11:10.159Z,99788.25
2019-01-08T15:13:38.581Z,99788.25
2019-01-08T15:16:07.023Z,99789.11
2019-01-08T15:18:35.531Z,99789.11
2019-01-08T15:21:03.985Z,99798.17
2019-01-08T15:23:32.422Z,99789.23
2019-01-08T15:26:00.853Z,99765.02
2019-01-08T15:28:29.265Z,99797.77
2019-01-08T15:30:57.736Z,99802.59
2019-01-08T15:33:26.148Z,99804.23
2019-01-08T15:35:54.555Z,99803.14
2019-01-08T15:38:23.076Z,99802.48
2019-01-08T15:40:51.556Z,99779.79
2019-01-08T15:43:20.016Z,99794.72
2019-01-08T15:45:48.437Z,99788.04
2019-01-08T15:48:16.942Z,99818.21
2019-01-08T15:50:45.375Z,99813.18
2019-01-08T15:53:13.896Z,99808.78
2019-01-08T15:55:42.306Z,99814.27
2019-01-08T15:58:10.761Z,99816.00
2019-01-08T16:00:39.167Z,99800.23
2019-01-08T16:03:07.759Z,99817.27
2019-01-08T16:05:36.200Z,99817.27
2019-01-08T16:08:04.815Z,99816.91
2019-01-08T16:10:33.205Z,99822.90
2019-01-08T16:13:01.650Z,99818.78
2019-01-08T16:15:30.067Z,99821.75
2019-01-08T16:17:58.507Z,99823.56
2019-01-08T16:20:26.919Z,99824.65
2019-01-08T16:22:55.360Z,99824.65
2019-01-08T16:25:23.820Z,99830.83
2019-01-08T16:27:52.297Z,99836.64
2019-01-08T16:30:20.713Z,99836.64
2019-01-08T16:32:49.162Z,99829.30
2019-01-08T16:35:17.578Z,99832.70
2019-01-08T16:37:46.020Z,99832.70
2019-01-08T16:40:14.804Z,99835.03
2019-01-08T16:42:43.242Z,99840.58
2019-01-08T16:45:11.736Z,99851.71
2019-01-08T16:47:40.167Z,99831.92
2019-01-08T16:50:08.651Z,99843.52
2019-01-08T16:52:37.093Z,99851.58
2019-01-08T16:55:06.043Z,99859.08
2019-01-08T16:57:34.497Z,99873.24
2019-01-08T17:00:03.381Z,99868.56
2019-01-08T17:02:33.043Z,99889.73
2019-01-08T17:05:01.520Z,99867.72
2019-01-08T17:07:29.932Z,99882.40
2019-01-08T17:09:58.375Z,99888.02
2019-01-08T17:12:26.782Z,99891.55
2019-01-08T17:14:55.220Z,99894.93
2019-01-08T17:17:23.632Z,99888.15
2019-01-08T17:19:52.071Z,99906.16
2019-01-08T17:22:20.484Z,99918.44
2019-01-08T17:24:48.936Z,99898.11
2019-01-08T17:27:17.356Z,99900.52
2019-01-08T17:29:45.795Z,99907.58
2019-01-08T17:32:14.213Z,99920.11
2019-01-08T17:34:42.648Z,99906.45
2019-01-08T17:37:11.063Z,99901.90
2019-01-08T17:39:39.510Z,99924.50
2019-01-08T17:42:07.923Z,99905.78
2019-01-08T17:44:36.460Z,99903.44
2019-01-08T17:47:04.919Z,99903.31
2019-01-08T17:49:33.359Z,99923.83
2019-01-08T17:52:01.848Z,99889.25
2019-01-08T17:54:30.304Z,99892.58
2019-01-08T17:56:58.705Z,99907.20
2019-01-08T17:59:27.145Z,99898.42
2019-01-08T18:01:55.561Z,99898.23
2019-01-08T18:04:23.996Z,99907.28
2019-01-08T18:06:52.410Z,99908.48
2019-01-08T18:09:20.855Z,99918.23
2019-01-08T18:11:49.256Z,99917.53
2019-01-08T18:14:17.693Z,99918.88
2019-01-08T18:16:46.105Z,99907.92
2019-01-08T18:19:14.569Z,99917.17
2019-01-08T18:21:42.974Z,99895.06
2019-01-08T18:24:11.427Z,99911.74
2019-01-08T18:26:39.841Z,99918.45
2019-01-08T18:29:08.270Z,99926.94
2019-01-08T18:31:36.687Z,99923.64
2019-01-08T18:34:05.167Z,99922.48
2019-01-08T18:36:33.607Z,99955.22
2019-01-08T18:39:02.024Z,99934.81
2019-01-08T18:41:30.473Z,99923.03
2019-01-08T18:43:58.885Z,99934.17
2019-01-08T18:46:27.328Z,99923.86
2019-01-08T18:48:55.739Z,99948.66
2019-01-08T18:51:24.181Z,99940.25
2019-01-08T18:53:52.591Z,99931.67
2019-01-08T18:56:21.031Z,99939.03
2019-01-08T18:58:49.517Z,99940.56
2019-01-08T19:01:17.959Z,99921.00
2019-01-08T19:03:46.373Z,99939.77
2019-01-08T19:06:14.832Z,99933.02
2019-01-08T19:09:21.277Z,99934.20
2019-01-08T19:11:49.714Z,99935.88
2019-01-08T19:14:19.467Z,99944.70
2019-01-08T19:16:47.909Z,99940.15
2019-01-08T19:19:16.326Z,99944.20
2019-01-08T19:21:44.763Z,99948.11
2019-01-08T19:24:13.177Z,99946.41
2019-01-08T19:26:41.612Z,99953.50
2019-01-08T19:29:10.099Z,99956.02
2019-01-08T19:31:38.536Z,99963.08
2019-01-08T19:34:09.466Z,99947.41
2019-01-08T19:36:37.193Z,99960.92
2019-01-08T19:39:07.137Z,99963.45
2019-01-08T19:41:35.585Z,99969.52
2019-01-08T19:44:04.097Z,99966.20
2019-01-08T19:46:32.528Z,99953.93
2019-01-08T19:49:00.937Z,99966.41
2019-01-08T19:51:29.383Z,99975.36
2019-01-08T19:53:57.862Z,99967.95
2019-01-08T19:56:26.376Z,99975.20
2019-01-08T19:58:54.787Z,99981.45
2019-01-08T20:01:23.231Z,99985.15
2019-01-08T20:03:51.712Z,99976.75
2019-01-08T20:06:20.157Z,99977.41
2019-01-08T20:08:49.008Z,99985.66
2019-01-08T20:11:17.559Z,99986.84
2019-01-08T20:13:46.039Z,99996.48
2019-01-08T20:16:14.484Z,99968.33
2019-01-08T20:18:45.220Z,99992.97
2019-01-08T20:21:13.072Z,99971.23
2019-01-08T20:23:41.553Z,100001.42
2019-01-08T20:26:10.068Z,99991.12
2019-01-08T20:28:38.471Z,99987.93
2019-01-08T20:31:06.911Z,99998.38
2019-01-08T20:33:35.317Z,99995.04
2019-01-08T20:36:03.763Z,100003.45
2019-01-08T20:38:32.174Z,100006.48
2019-01-08T20:41:00.617Z,100008.86
2019-01-08T20:43:29.121Z,100002.44
2019-01-08T20:45:57.530Z,100007.65
2019-01-08T20:48:25.965Z,99994.68
2019-01-08T20:50:54.456Z,100008.50
2019-01-08T20:53:22.909Z,100020.48
2019-01-08T20:55:51.317Z,99999.94
2019-01-08T20:58:36.036Z,100026.58
2019-01-08T21:01:23.811Z,100020.00
2019-01-08T21:03:54.870Z,100026.09
2019-01-08T21:06:33.913Z,100029.97
2019-01-08T21:09:24.584Z,100039.22
2019-01-08T21:14:49.209Z,100034.16
2019-01-08T21:17:30.554Z,100040.39
2019-01-08T21:19:59.038Z,100032.16
2019-01-08T21:22:27.510Z,100031.84
2019-01-08T21:24:55.959Z,100033.00
2019-01-08T21:27:24.414Z,100025.77
2019-01-08T21:29:52.935Z,100035.02
2019-01-08T21:32:21.490Z,100044.63
2019-01-08T21:34:50.699Z,100044.11
2019-01-08T21:37:19.153Z,100040.25
2019-01-08T21:39:47.599Z,100045.78
2019-01-08T21:42:16.160Z,100030.65
2019-01-08T21:44:44.564Z,100050.34
2019-01-08T21:47:25.446Z,100050.67
2019-01-08T21:49:54.192Z,100055.22
2019-01-08T21:52:22.727Z,100054.89
2019-01-08T21:54:52.827Z,100057.91
2019-01-08T21:57:22.239Z,100060.09
2019-01-08T21:59:50.877Z,100058.92
2019-01-08T22:02:20.178Z,100054.37
2019-01-08T22:08:14.749Z,100051.86
2019-01-08T22:10:43.171Z,100041.25
2019-01-08T22:16:37.043Z,100030.15
2019-01-08T22:19:16.235Z,100049.83
2019-01-08T22:22:15.441Z,100046.94
2019-01-08T22:24:50.225Z,100047.63
2019-01-08T22:27:20.422Z,100072.89
2019-01-08T22:29:48.880Z,100057.23
2019-01-08T22:32:17.348Z,100046.95
2019-01-08T22:35:02.402Z,100046.94
2019-01-08T22:37:27.960Z,100062.09
2019-01-08T22:39:56.987Z,100079.44
2019-01-08T22:42:25.980Z,100032.97
2019-01-08T22:44:57.562Z,100056.55
2019-01-08T22:50:20.872Z,100069.36
2019-01-08T22:52:49.925Z,100088.88
2019-01-08T22:55:19.144Z,100081.48
2019-01-08T22:57:56.359Z,100075.41
2019-01-08T23:00:35.361Z,100083.48
2019-01-08T23:03:05.425Z,100082.47
2019-01-08T23:05:33.920Z,100077.09
2019-01-08T23:08:02.441Z,100050.98
2019-01-08T23:10:31.751Z,100083.99
2019-01-08T23:13:00.640Z,100089.89
2019-01-08T23:15:29.257Z,100104.38
2019-01-08T23:17:57.754Z,100106.38
2019-01-08T23:20:28.673Z,100080.78
2019-01-08T23:22:57.119Z,100100.33
2019-01-08T23:25:25.598Z,100098.80
2019-01-08T23:27:54.184Z,100104.20
2019-01-08T23:30:22.666Z,100101.83
2019-01-08T23:32:51.199Z,100099.65
2019-01-08T23:35:19.866Z,100110.61
2019-01-08T23:37:48.421Z,100118.84
2019-01-08T23:40:16.961Z,100120.38
2019-01-08T23:42:45.467Z,100121.22
2019-01-08T23:45:13.932Z,100138.37
2019-01-08T23:47:42.441Z,100135.34
2019-01-08T23:50:10.975Z,100140.73
2019-01-08T23:53:05.900Z,100143.24
2019-01-08T23:55:37.468Z,100137.34
2019-01-08T23:58:09.109Z,100129.45
